createdAt,value
2017-04-18T00:00:24.958Z,1011.02
2017-04-18T00:01:05.535Z,1010.96
2017-04-18T00:01:46.113Z,1010.97
2017-04-18T00:02:26.682Z,1010.94
2017-04-18T00:03:07.359Z,1010.97
2017-04-18T00:03:47.941Z,1010.97
2017-04-18T00:04:28.522Z,1011.04
2017-04-18T00:05:09.124Z,1011.01
2017-04-18T00:05:49.783Z,1010.97
2017-04-18T00:06:30.368Z,1010.99
2017-04-18T00:07:10.946Z,1011.02
2017-04-18T00:07:51.523Z,1010.95
2017-04-18T00:08:32.109Z,1011.01
2017-04-18T00:09:12.692Z,1011.01
2017-04-18T00:09:53.324Z,1010.99
2017-04-18T00:10:33.900Z,1011
2017-04-18T00:11:14.530Z,1011.01
2017-04-18T00:11:55.100Z,1011.05
2017-04-18T00:12:35.701Z,1011.05
2017-04-18T00:13:16.294Z,1011.06
2017-04-18T00:13:56.904Z,1011.04
2017-04-18T00:14:37.495Z,1011.03
2017-04-18T00:15:18.089Z,1011.03
2017-04-18T00:15:58.692Z,1011.02
2017-04-18T00:16:39.295Z,1011.01
2017-04-18T00:17:19.864Z,1011.06
2017-04-18T00:18:00.480Z,1011.06
2017-04-18T00:18:41.063Z,1011.02
2017-04-18T00:19:21.671Z,1011.01
2017-04-18T00:20:02.271Z,1011.04
2017-04-18T00:20:42.859Z,1011.02
2017-04-18T00:21:23.450Z,1010.99
2017-04-18T00:22:04.029Z,1011.04
2017-04-18T00:22:44.614Z,1011.05
2017-04-18T00:23:25.251Z,1011.04
2017-04-18T00:24:05.884Z,1011
2017-04-18T00:24:46.480Z,1011.06
2017-04-18T00:25:27.103Z,1011.1
2017-04-18T00:26:07.685Z,1011.06
2017-04-18T00:26:48.275Z,1011.04
2017-04-18T00:27:28.850Z,1011.1
2017-04-18T00:28:09.453Z,1011.05
2017-04-18T00:28:50.059Z,1011.06
2017-04-18T00:29:30.648Z,1011.05
2017-04-18T00:30:11.250Z,1011.08
2017-04-18T00:30:51.835Z,1011.09
2017-04-18T00:31:32.434Z,1011.12
2017-04-18T00:32:13.018Z,1011.11
2017-04-18T00:32:53.594Z,1011.13
2017-04-18T00:33:34.164Z,1011.12
2017-04-18T00:34:14.762Z,1011.11
2017-04-18T00:34:55.349Z,1011.14
2017-04-18T00:35:35.917Z,1011.13
2017-04-18T00:36:16.484Z,1011.12
2017-04-18T00:36:57.146Z,1011.19
2017-04-18T00:37:37.724Z,1011.19
2017-04-18T00:38:18.387Z,1011.16
2017-04-18T00:38:58.998Z,1011.17
2017-04-18T00:39:39.571Z,1011.15
2017-04-18T00:40:20.167Z,1011.2
2017-04-18T00:41:00.769Z,1011.24
2017-04-18T00:41:41.347Z,1011.22
2017-04-18T00:42:21.932Z,1011.19
2017-04-18T00:43:02.511Z,1011.21
2017-04-18T00:43:43.111Z,1011.21
2017-04-18T00:44:23.677Z,1011.22
2017-04-18T00:45:04.303Z,1011.25
2017-04-18T00:45:44.919Z,1011.23
2017-04-18T00:46:25.512Z,1011.24
2017-04-18T00:47:06.189Z,1011.22
2017-04-18T00:47:46.784Z,1011.2
2017-04-18T00:48:27.436Z,1011.25
2017-04-18T00:49:08.023Z,1011.23
2017-04-18T00:49:48.615Z,1011.21
2017-04-18T00:50:29.215Z,1011.27
2017-04-18T00:51:09.834Z,1011.19
2017-04-18T00:51:50.431Z,1011.2
2017-04-18T00:52:31.001Z,1011.25
2017-04-18T00:53:11.575Z,1011.25
2017-04-18T00:53:52.299Z,1011.28
2017-04-18T00:54:32.920Z,1011.22
2017-04-18T00:55:13.532Z,1011.23
2017-04-18T00:55:54.113Z,1011.26
2017-04-18T00:56:34.683Z,1011.22
2017-04-18T00:57:15.351Z,1011.21
2017-04-18T00:57:55.878Z,1011.22
2017-04-18T00:58:36.472Z,1011.24
2017-04-18T00:59:17.059Z,1011.22
2017-04-18T00:59:57.652Z,1011.22
2017-04-18T01:00:38.218Z,1011.22
2017-04-18T01:01:18.797Z,1011.21
2017-04-18T01:01:59.388Z,1011.25
2017-04-18T01:02:39.960Z,1011.27
2017-04-18T01:03:20.524Z,1011.25
2017-04-18T01:04:01.142Z,1011.24
2017-04-18T01:04:41.770Z,1011.26
2017-04-18T01:05:22.339Z,1011.22
2017-04-18T01:06:02.993Z,1011.23
2017-04-18T01:06:43.563Z,1011.27
2017-04-18T01:07:24.199Z,1011.23
2017-04-18T01:08:04.736Z,1011.26
2017-04-18T01:08:45.312Z,1011.22
2017-04-18T01:09:25.913Z,1011.2
2017-04-18T01:10:06.496Z,1011.24
2017-04-18T01:10:47.058Z,1011.26
2017-04-18T01:11:27.667Z,1011.21
2017-04-18T01:12:08.259Z,1011.2
2017-04-18T01:12:48.866Z,1011.26
2017-04-18T01:13:29.479Z,1011.19
2017-04-18T01:14:10.052Z,1011.25
2017-04-18T01:14:50.637Z,1011.25
2017-04-18T01:15:31.227Z,1011.24
2017-04-18T01:16:11.786Z,1011.25
2017-04-18T01:16:52.366Z,1011.24
2017-04-18T01:17:32.960Z,1011.23
2017-04-18T01:18:13.545Z,1011.23
2017-04-18T01:18:54.179Z,1011.24
2017-04-18T01:19:34.813Z,1011.24
2017-04-18T01:20:15.409Z,1011.27
2017-04-18T01:20:56.028Z,1011.26
2017-04-18T01:21:36.644Z,1011.27
2017-04-18T01:22:17.211Z,1011.25
2017-04-18T01:22:57.797Z,1011.26
2017-04-18T01:23:38.392Z,1011.29
2017-04-18T01:24:18.996Z,1011.29
2017-04-18T01:24:59.556Z,1011.27
2017-04-18T01:25:40.144Z,1011.31
2017-04-18T01:26:20.733Z,1011.31
2017-04-18T01:27:01.309Z,1011.3
2017-04-18T01:27:41.924Z,1011.32
2017-04-18T01:28:22.555Z,1011.28
2017-04-18T01:29:03.118Z,1011.29
2017-04-18T01:29:43.697Z,1011.29
2017-04-18T01:30:24.272Z,1011.31
2017-04-18T01:31:04.863Z,1011.3
2017-04-18T01:31:45.448Z,1011.28
2017-04-18T01:32:26.056Z,1011.27
2017-04-18T01:33:06.631Z,1011.3
2017-04-18T01:33:47.201Z,1011.31
2017-04-18T01:34:27.793Z,1011.27
2017-04-18T01:35:08.417Z,1011.33
2017-04-18T01:35:48.993Z,1011.33
2017-04-18T01:36:29.579Z,1011.33
2017-04-18T01:37:10.159Z,1011.32
2017-04-18T01:37:50.741Z,1011.36
2017-04-18T01:38:31.371Z,1011.33
2017-04-18T01:39:11.970Z,1011.33
2017-04-18T01:39:52.564Z,1011.38
2017-04-18T01:40:33.174Z,1011.33
2017-04-18T01:41:13.755Z,1011.37
2017-04-18T01:41:54.342Z,1011.37
2017-04-18T01:42:34.910Z,1011.39
2017-04-18T01:43:15.489Z,1011.4
2017-04-18T01:43:56.082Z,1011.37
2017-04-18T01:44:36.655Z,1011.42
2017-04-18T01:45:17.580Z,1011.45
2017-04-18T01:45:59.003Z,1011.4
2017-04-18T01:46:40.348Z,1011.42
2017-04-18T01:47:21.627Z,1011.43
2017-04-18T01:48:02.827Z,1011.43
2017-04-18T01:48:44.177Z,1011.42
2017-04-18T01:49:25.288Z,1011.42
2017-04-18T01:50:07.376Z,1011.46
2017-04-18T01:50:51.504Z,1011.42
2017-04-18T01:51:34.417Z,1011.45
2017-04-18T01:52:16.871Z,1011.45
2017-04-18T01:52:59.402Z,1011.47
2017-04-18T01:53:41.858Z,1011.45
2017-04-18T01:54:25.041Z,1011.47
2017-04-18T01:55:07.867Z,1011.53
2017-04-18T01:55:50.872Z,1011.52
2017-04-18T01:56:33.364Z,1011.5
2017-04-18T01:57:15.949Z,1011.51
2017-04-18T01:57:56.847Z,1011.53
2017-04-18T01:58:37.428Z,1011.53
2017-04-18T01:59:18.035Z,1011.54
2017-04-18T01:59:58.634Z,1011.55
2017-04-18T02:00:39.473Z,1011.53
2017-04-18T02:01:20.040Z,1011.54
2017-04-18T02:02:01.256Z,1011.54
2017-04-18T02:02:41.799Z,1011.55
2017-04-18T02:03:22.392Z,1011.56
2017-04-18T02:04:02.990Z,1011.56
2017-04-18T02:04:43.573Z,1011.59
2017-04-18T02:05:24.170Z,1011.6
2017-04-18T02:06:04.748Z,1011.56
2017-04-18T02:06:45.371Z,1011.56
2017-04-18T02:07:26.017Z,1011.58
2017-04-18T02:08:06.625Z,1011.56
2017-04-18T02:08:47.230Z,1011.57
2017-04-18T02:09:27.910Z,1011.54
2017-04-18T02:10:08.531Z,1011.57
2017-04-18T02:10:49.136Z,1011.61
2017-04-18T02:11:29.769Z,1011.61
2017-04-18T02:12:10.372Z,1011.59
2017-04-18T02:12:50.955Z,1011.63
2017-04-18T02:13:31.528Z,1011.63
2017-04-18T02:14:12.105Z,1011.63
2017-04-18T02:14:52.668Z,1011.61
2017-04-18T02:15:33.245Z,1011.65
2017-04-18T02:16:13.840Z,1011.64
2017-04-18T02:16:54.421Z,1011.65
2017-04-18T02:17:35.064Z,1011.62
2017-04-18T02:18:15.646Z,1011.62
2017-04-18T02:18:56.271Z,1011.68
2017-04-18T02:19:36.820Z,1011.68
2017-04-18T02:20:17.407Z,1011.65
2017-04-18T02:20:57.985Z,1011.64
2017-04-18T02:21:38.614Z,1011.63
2017-04-18T02:22:19.189Z,1011.72
2017-04-18T02:22:59.775Z,1011.71
2017-04-18T02:23:40.357Z,1011.66
2017-04-18T02:24:20.936Z,1011.67
2017-04-18T02:25:01.525Z,1011.69
2017-04-18T02:25:42.106Z,1011.67
2017-04-18T02:26:22.695Z,1011.7
2017-04-18T02:27:03.286Z,1011.64
2017-04-18T02:27:43.882Z,1011.65
2017-04-18T02:28:24.526Z,1011.67
2017-04-18T02:29:05.039Z,1011.7
2017-04-18T02:29:45.618Z,1011.7
2017-04-18T02:30:26.211Z,1011.72
2017-04-18T02:31:06.782Z,1011.71
2017-04-18T02:31:47.359Z,1011.73
2017-04-18T02:32:27.918Z,1011.7
2017-04-18T02:33:08.495Z,1011.7
2017-04-18T02:33:49.075Z,1011.72
2017-04-18T02:34:29.660Z,1011.73
2017-04-18T02:35:10.252Z,1011.69
2017-04-18T02:35:50.836Z,1011.71
2017-04-18T02:36:31.434Z,1011.71
2017-04-18T02:37:12.048Z,1011.7
2017-04-18T02:37:52.612Z,1011.74
2017-04-18T02:38:33.188Z,1011.72
2017-04-18T02:39:13.819Z,1011.73
2017-04-18T02:39:54.390Z,1011.74
2017-04-18T02:40:35.011Z,1011.76
2017-04-18T02:41:15.575Z,1011.74
2017-04-18T02:41:56.201Z,1011.82
2017-04-18T02:42:37.015Z,1011.84
2017-04-18T02:43:17.604Z,1011.76
2017-04-18T02:43:58.203Z,1011.8
2017-04-18T02:44:38.820Z,1011.76
2017-04-18T02:45:19.412Z,1011.8
2017-04-18T02:45:59.994Z,1011.75
2017-04-18T02:46:40.575Z,1011.74
2017-04-18T02:47:21.161Z,1011.78
2017-04-18T02:48:01.740Z,1011.78
2017-04-18T02:48:42.315Z,1011.79
2017-04-18T02:49:22.931Z,1011.81
2017-04-18T02:50:03.540Z,1011.76
2017-04-18T02:50:44.129Z,1011.79
2017-04-18T02:51:24.734Z,1011.78
2017-04-18T02:52:05.296Z,1011.78
2017-04-18T02:52:45.877Z,1011.77
2017-04-18T02:53:26.463Z,1011.79
2017-04-18T02:54:07.071Z,1011.77
2017-04-18T02:54:47.632Z,1011.81
2017-04-18T02:55:28.232Z,1011.83
2017-04-18T02:56:08.826Z,1011.8
2017-04-18T02:56:49.478Z,1011.79
2017-04-18T02:57:30.062Z,1011.8
2017-04-18T02:58:10.656Z,1011.81
2017-04-18T02:58:51.243Z,1011.81
2017-04-18T02:59:31.823Z,1011.84
2017-04-18T03:00:12.470Z,1011.83
2017-04-18T03:00:53.090Z,1011.85
2017-04-18T03:01:33.698Z,1011.87
2017-04-18T03:02:14.346Z,1011.88
2017-04-18T03:02:54.891Z,1011.9
2017-04-18T03:03:35.498Z,1011.89
2017-04-18T03:04:16.075Z,1011.91
2017-04-18T03:04:56.652Z,1011.93
2017-04-18T03:05:37.223Z,1011.92
2017-04-18T03:06:17.809Z,1011.9
2017-04-18T03:06:58.390Z,1011.91
2017-04-18T03:07:38.983Z,1011.92
2017-04-18T03:08:19.559Z,1011.91
2017-04-18T03:09:00.180Z,1011.92
2017-04-18T03:09:40.751Z,1011.93
2017-04-18T03:10:21.335Z,1011.92
2017-04-18T03:11:01.916Z,1011.95
2017-04-18T03:11:42.516Z,1011.96
2017-04-18T03:12:23.104Z,1011.98
2017-04-18T03:13:03.680Z,1011.97
2017-04-18T03:13:44.268Z,1011.98
2017-04-18T03:14:24.881Z,1012.01
2017-04-18T03:15:05.458Z,1011.97
2017-04-18T03:15:46.059Z,1011.94
2017-04-18T03:16:26.638Z,1012
2017-04-18T03:17:07.222Z,1011.96
2017-04-18T03:17:47.785Z,1012.02
2017-04-18T03:18:28.355Z,1012
2017-04-18T03:19:08.976Z,1012.03
2017-04-18T03:19:49.604Z,1012.04
2017-04-18T03:20:30.180Z,1012.04
2017-04-18T03:21:10.765Z,1012.04
2017-04-18T03:21:51.353Z,1012.07
2017-04-18T03:22:31.989Z,1012.07
2017-04-18T03:23:12.560Z,1012.06
2017-04-18T03:23:53.168Z,1012.08
2017-04-18T03:24:33.831Z,1012.11
2017-04-18T03:25:14.365Z,1012.1
2017-04-18T03:25:54.953Z,1012.1
2017-04-18T03:26:35.547Z,1012.08
2017-04-18T03:27:16.126Z,1012.12
2017-04-18T03:27:56.706Z,1012.11
2017-04-18T03:28:37.301Z,1012.11
2017-04-18T03:29:17.942Z,1012.12
2017-04-18T03:29:58.615Z,1012.14
2017-04-18T03:30:39.153Z,1012.15
2017-04-18T03:31:19.748Z,1012.15
2017-04-18T03:32:00.315Z,1012.18
2017-04-18T03:32:40.893Z,1012.17
2017-04-18T03:33:21.484Z,1012.11
2017-04-18T03:34:02.053Z,1012.15
2017-04-18T03:34:42.649Z,1012.24
2017-04-18T03:35:23.217Z,1012.23
2017-04-18T03:36:03.792Z,1012.19
2017-04-18T03:36:44.370Z,1012.21
2017-04-18T03:37:24.960Z,1012.23
2017-04-18T03:38:05.528Z,1012.23
2017-04-18T03:38:46.121Z,1012.23
2017-04-18T03:39:26.722Z,1012.22
2017-04-18T03:40:07.302Z,1012.25
2017-04-18T03:40:47.873Z,1012.23
2017-04-18T03:41:28.459Z,1012.26
2017-04-18T03:42:09.063Z,1012.27
2017-04-18T03:42:49.641Z,1012.35
2017-04-18T03:43:30.214Z,1012.27
2017-04-18T03:44:10.796Z,1012.35
2017-04-18T03:44:51.379Z,1012.3
2017-04-18T03:45:31.960Z,1012.29
2017-04-18T03:46:12.542Z,1012.35
2017-04-18T03:46:53.137Z,1012.33
2017-04-18T03:47:33.719Z,1012.29
2017-04-18T03:48:14.295Z,1012.3
2017-04-18T03:48:54.890Z,1012.33
2017-04-18T03:49:35.488Z,1012.35
2017-04-18T03:50:16.075Z,1012.36
2017-04-18T03:50:56.685Z,1012.39
2017-04-18T03:51:37.248Z,1012.37
2017-04-18T03:52:17.845Z,1012.36
2017-04-18T03:52:58.441Z,1012.41
2017-04-18T03:53:39.034Z,1012.43
2017-04-18T03:54:19.602Z,1012.44
2017-04-18T03:55:00.194Z,1012.42
2017-04-18T03:55:40.817Z,1012.47
2017-04-18T03:56:21.396Z,1012.5
2017-04-18T03:57:02.020Z,1012.47
2017-04-18T03:57:42.651Z,1012.51
2017-04-18T03:58:23.239Z,1012.48
2017-04-18T03:59:03.831Z,1012.53
2017-04-18T03:59:44.421Z,1012.52
2017-04-18T04:00:25.013Z,1012.53
2017-04-18T04:01:05.616Z,1012.5
2017-04-18T04:01:46.210Z,1012.53
2017-04-18T04:02:26.843Z,1012.52
2017-04-18T04:03:07.452Z,1012.54
2017-04-18T04:03:48.027Z,1012.53
2017-04-18T04:04:28.620Z,1012.53
2017-04-18T04:05:09.219Z,1012.54
2017-04-18T04:05:49.824Z,1012.52
2017-04-18T04:06:30.403Z,1012.54
2017-04-18T04:07:10.978Z,1012.55
2017-04-18T04:07:51.573Z,1012.55
2017-04-18T04:08:32.142Z,1012.53
2017-04-18T04:09:12.729Z,1012.57
2017-04-18T04:09:53.299Z,1012.53
2017-04-18T04:10:33.880Z,1012.55
2017-04-18T04:11:14.464Z,1012.55
2017-04-18T04:11:55.101Z,1012.56
2017-04-18T04:12:35.698Z,1012.56
2017-04-18T04:13:16.273Z,1012.55
2017-04-18T04:13:56.845Z,1012.55
2017-04-18T04:14:37.409Z,1012.59
2017-04-18T04:15:17.998Z,1012.59
2017-04-18T04:15:58.561Z,1012.58
2017-04-18T04:16:39.141Z,1012.58
2017-04-18T04:17:19.747Z,1012.58
2017-04-18T04:18:00.379Z,1012.61
2017-04-18T04:18:40.931Z,1012.61
2017-04-18T04:19:21.514Z,1012.6
2017-04-18T04:20:02.116Z,1012.64
2017-04-18T04:20:42.766Z,1012.62
2017-04-18T04:21:23.308Z,1012.63
2017-04-18T04:22:03.892Z,1012.64
2017-04-18T04:22:44.475Z,1012.65
2017-04-18T04:23:25.079Z,1012.69
2017-04-18T04:24:05.685Z,1012.67
2017-04-18T04:24:46.259Z,1012.7
2017-04-18T04:25:26.847Z,1012.68
2017-04-18T04:26:07.461Z,1012.7
2017-04-18T04:26:48.066Z,1012.72
2017-04-18T04:27:28.664Z,1012.7
2017-04-18T04:28:09.239Z,1012.72
2017-04-18T04:28:49.828Z,1012.7
2017-04-18T04:29:30.458Z,1012.73
2017-04-18T04:30:11.072Z,1012.74
2017-04-18T04:30:51.652Z,1012.72
2017-04-18T04:31:32.271Z,1012.75
2017-04-18T04:32:12.861Z,1012.73
2017-04-18T04:32:53.485Z,1012.79
2017-04-18T04:33:34.102Z,1012.76
2017-04-18T04:34:14.759Z,1012.73
2017-04-18T04:34:55.330Z,1012.73
2017-04-18T04:35:35.876Z,1012.79
2017-04-18T04:36:16.474Z,1012.76
2017-04-18T04:36:57.090Z,1012.81
2017-04-18T04:37:37.679Z,1012.82
2017-04-18T04:38:18.300Z,1012.86
2017-04-18T04:38:58.907Z,1012.83
2017-04-18T04:39:39.543Z,1012.8
2017-04-18T04:40:20.122Z,1012.82
2017-04-18T04:41:00.694Z,1012.87
2017-04-18T04:41:41.288Z,1012.84
2017-04-18T04:42:21.919Z,1012.89
2017-04-18T04:43:02.608Z,1012.86
2017-04-18T04:43:43.171Z,1012.88
2017-04-18T04:44:23.762Z,1012.87
2017-04-18T04:45:04.365Z,1012.84
2017-04-18T04:45:44.969Z,1012.89
2017-04-18T04:46:25.562Z,1012.9
2017-04-18T04:47:06.172Z,1012.87
2017-04-18T04:47:46.765Z,1012.87
2017-04-18T04:48:27.359Z,1012.91
2017-04-18T04:49:08.131Z,1012.92
2017-04-18T04:49:48.952Z,1012.89
2017-04-18T04:50:29.529Z,1012.96
2017-04-18T04:51:10.131Z,1012.91
2017-04-18T04:51:50.731Z,1012.9
2017-04-18T04:52:31.296Z,1012.96
2017-04-18T04:53:11.888Z,1012.96
2017-04-18T04:53:52.479Z,1012.96
2017-04-18T04:54:33.096Z,1013.02
2017-04-18T04:55:13.695Z,1013.01
2017-04-18T04:55:54.311Z,1013.04
2017-04-18T04:56:34.884Z,1012.98
2017-04-18T04:57:15.497Z,1013.03
2017-04-18T04:57:56.103Z,1013.05
2017-04-18T04:58:36.712Z,1013.07
2017-04-18T04:59:17.300Z,1013.09
2017-04-18T04:59:57.881Z,1013.09
2017-04-18T05:00:38.471Z,1013.13
2017-04-18T05:01:19.054Z,1013.2
2017-04-18T05:01:59.662Z,1013.16
2017-04-18T05:02:40.249Z,1013.17
2017-04-18T05:03:20.829Z,1013.15
2017-04-18T05:04:01.412Z,1013.18
2017-04-18T05:04:42.024Z,1013.11
2017-04-18T05:05:22.610Z,1013.16
2017-04-18T05:06:03.247Z,1013.16
2017-04-18T05:06:43.776Z,1013.16
2017-04-18T05:07:24.386Z,1013.23
2017-04-18T05:08:05.017Z,1013.22
2017-04-18T05:08:45.616Z,1013.26
2017-04-18T05:09:26.182Z,1013.24
2017-04-18T05:10:06.770Z,1013.18
2017-04-18T05:10:47.403Z,1013.2
2017-04-18T05:11:28.046Z,1013.25
2017-04-18T05:12:08.756Z,1013.24
2017-04-18T05:12:49.337Z,1013.31
2017-04-18T05:13:29.932Z,1013.31
2017-04-18T05:14:10.503Z,1013.33
2017-04-18T05:14:51.115Z,1013.33
2017-04-18T05:17:04.209Z,1013.34
2017-04-18T05:17:44.819Z,1013.38
2017-04-18T05:18:25.455Z,1013.37
2017-04-18T05:19:06.017Z,1013.37
2017-04-18T05:19:46.584Z,1013.41
2017-04-18T05:20:27.177Z,1013.39
2017-04-18T05:21:07.772Z,1013.42
2017-04-18T05:21:48.363Z,1013.41
2017-04-18T05:22:28.951Z,1013.38
2017-04-18T05:23:09.522Z,1013.44
2017-04-18T05:23:50.179Z,1013.41
2017-04-18T05:24:30.714Z,1013.41
2017-04-18T05:25:11.323Z,1013.49
2017-04-18T05:25:51.927Z,1013.48
2017-04-18T05:26:32.527Z,1013.48
2017-04-18T05:27:13.107Z,1013.48
2017-04-18T05:27:53.696Z,1013.49
2017-04-18T05:28:34.600Z,1013.49
2017-04-18T05:29:15.207Z,1013.55
2017-04-18T05:29:55.789Z,1013.51
2017-04-18T05:30:36.431Z,1013.53
2017-04-18T05:31:17.005Z,1013.52
2017-04-18T05:31:57.576Z,1013.57
2017-04-18T05:32:38.173Z,1013.58
2017-04-18T05:33:18.753Z,1013.51
2017-04-18T05:33:59.346Z,1013.59
2017-04-18T05:34:39.959Z,1013.57
2017-04-18T05:35:20.589Z,1013.54
2017-04-18T05:36:01.168Z,1013.57
2017-04-18T05:36:41.741Z,1013.58
2017-04-18T05:37:22.326Z,1013.62
2017-04-18T05:38:02.966Z,1013.59
2017-04-18T05:38:43.542Z,1013.62
2017-04-18T05:39:24.151Z,1013.66
2017-04-18T05:40:04.791Z,1013.67
2017-04-18T05:40:45.385Z,1013.66
2017-04-18T05:41:26.087Z,1013.63
2017-04-18T05:42:06.697Z,1013.64
2017-04-18T05:42:47.268Z,1013.67
2017-04-18T05:43:27.836Z,1013.63
2017-04-18T05:44:08.422Z,1013.69
2017-04-18T05:44:49.020Z,1013.66
2017-04-18T05:45:29.615Z,1013.72
2017-04-18T05:46:10.247Z,1013.77
2017-04-18T05:46:50.817Z,1013.77
2017-04-18T05:47:31.430Z,1013.77
2017-04-18T05:48:12.032Z,1013.85
2017-04-18T05:48:52.607Z,1013.85
2017-04-18T05:49:33.186Z,1013.78
2017-04-18T05:50:13.754Z,1013.82
2017-04-18T05:50:54.351Z,1013.86
2017-04-18T05:51:34.970Z,1013.86
2017-04-18T05:52:15.619Z,1013.87
2017-04-18T05:52:56.201Z,1013.86
2017-04-18T05:53:36.825Z,1013.91
2017-04-18T05:54:17.407Z,1013.86
2017-04-18T05:54:58.035Z,1013.86
2017-04-18T05:55:38.623Z,1013.88
2017-04-18T05:56:19.198Z,1013.94
2017-04-18T05:56:59.811Z,1013.91
2017-04-18T05:57:40.368Z,1013.94
2017-04-18T05:58:20.983Z,1013.91
2017-04-18T05:59:01.674Z,1013.96
2017-04-18T05:59:42.266Z,1014.01
2017-04-18T06:00:22.836Z,1014.04
2017-04-18T06:01:03.421Z,1014.09
2017-04-18T06:01:44.007Z,1014.05
2017-04-18T06:02:24.622Z,1014.08
2017-04-18T06:03:05.213Z,1014.09
2017-04-18T06:03:45.836Z,1014.12
2017-04-18T06:04:26.451Z,1014.09
2017-04-18T06:05:07.048Z,1014.08
2017-04-18T06:05:47.638Z,1014.08
2017-04-18T06:06:28.248Z,1014.16
2017-04-18T06:07:08.856Z,1014.12
2017-04-18T06:07:49.443Z,1014.16
2017-04-18T06:08:30.034Z,1014.19
2017-04-18T06:09:10.646Z,1014.16
2017-04-18T06:09:51.248Z,1014.2
2017-04-18T06:10:31.871Z,1014.19
2017-04-18T06:11:12.560Z,1014.21
2017-04-18T06:11:53.147Z,1014.23
2017-04-18T06:12:33.772Z,1014.32
2017-04-18T06:13:14.361Z,1014.31
2017-04-18T06:13:54.951Z,1014.27
2017-04-18T06:14:35.529Z,1014.33
2017-04-18T06:15:16.109Z,1014.34
2017-04-18T06:15:56.732Z,1014.39
2017-04-18T06:16:37.311Z,1014.42
2017-04-18T06:17:17.934Z,1014.44
2017-04-18T06:17:58.525Z,1014.43
2017-04-18T06:18:39.129Z,1014.44
2017-04-18T06:19:19.727Z,1014.5
2017-04-18T06:20:00.323Z,1014.56
2017-04-18T06:20:40.884Z,1014.47
2017-04-18T06:21:21.475Z,1014.53
2017-04-18T06:22:02.082Z,1014.5
2017-04-18T06:22:42.685Z,1014.5
2017-04-18T06:23:23.303Z,1014.49
2017-04-18T06:24:03.885Z,1014.55
2017-04-18T06:24:44.522Z,1014.53
2017-04-18T06:25:25.150Z,1014.52
2017-04-18T06:26:05.735Z,1014.52
2017-04-18T06:26:46.328Z,1014.55
2017-04-18T06:27:26.930Z,1014.55
2017-04-18T06:28:07.597Z,1014.57
2017-04-18T06:28:48.219Z,1014.56
2017-04-18T06:29:28.797Z,1014.59
2017-04-18T06:30:09.443Z,1014.57
2017-04-18T06:30:50.053Z,1014.64
2017-04-18T06:31:30.617Z,1014.58
2017-04-18T06:32:11.198Z,1014.6
2017-04-18T06:32:51.825Z,1014.58
2017-04-18T06:33:32.427Z,1014.62
2017-04-18T06:34:13.021Z,1014.63
2017-04-18T06:34:53.645Z,1014.64
2017-04-18T06:35:34.244Z,1014.67
2017-04-18T06:36:14.819Z,1014.67
2017-04-18T06:36:55.426Z,1014.7
2017-04-18T06:37:36.025Z,1014.7
2017-04-18T06:38:16.652Z,1014.68
2017-04-18T06:38:57.267Z,1014.72
2017-04-18T06:39:37.887Z,1014.69
2017-04-18T06:40:18.481Z,1014.7
2017-04-18T06:40:59.087Z,1014.71
2017-04-18T06:41:39.739Z,1014.7
2017-04-18T06:42:20.340Z,1014.73
2017-04-18T06:43:00.903Z,1014.71
2017-04-18T06:43:41.479Z,1014.77
2017-04-18T06:44:22.130Z,1014.7
2017-04-18T06:45:02.787Z,1014.72
2017-04-18T06:45:43.591Z,1014.77
2017-04-18T06:46:24.258Z,1014.72
2017-04-18T06:47:04.857Z,1014.75
2017-04-18T06:47:45.793Z,1014.78
2017-04-18T06:48:26.600Z,1014.85
2017-04-18T06:49:07.302Z,1014.81
2017-04-18T06:49:47.964Z,1014.85
2017-04-18T06:50:28.569Z,1014.82
2017-04-18T06:51:09.423Z,1014.88
2017-04-18T06:51:50.175Z,1014.95
2017-04-18T06:52:30.797Z,1014.99
2017-04-18T06:53:11.536Z,1014.95
2017-04-18T06:53:52.722Z,1015.03
2017-04-18T06:54:33.286Z,1015
2017-04-18T06:55:13.944Z,1015.04
2017-04-18T06:55:54.551Z,1015.06
2017-04-18T06:56:35.114Z,1015.04
2017-04-18T06:57:15.767Z,1015.03
2017-04-18T06:57:56.418Z,1015.06
2017-04-18T06:58:37.012Z,1015.03
2017-04-18T06:59:17.602Z,1015.02
2017-04-18T06:59:58.221Z,1015.02
2017-04-18T07:00:38.785Z,1015.09
2017-04-18T07:01:19.381Z,1015.07
2017-04-18T07:01:59.965Z,1015.1
2017-04-18T07:02:40.594Z,1015.08
2017-04-18T07:03:21.200Z,1015.08
2017-04-18T07:04:01.769Z,1015.1
2017-04-18T07:04:42.379Z,1015.14
2017-04-18T07:05:23.055Z,1015.11
2017-04-18T07:06:03.640Z,1015.12
2017-04-18T07:06:44.266Z,1015.12
2017-04-18T07:07:26.039Z,1015.17
2017-04-18T07:08:06.661Z,1015.18
2017-04-18T07:08:47.210Z,1015.16
2017-04-18T07:09:27.888Z,1015.12
2017-04-18T07:10:08.465Z,1015.16
2017-04-18T07:10:49.033Z,1015.16
2017-04-18T07:11:29.607Z,1015.15
2017-04-18T07:12:10.185Z,1015.16
2017-04-18T07:12:50.777Z,1015.17
2017-04-18T07:13:31.427Z,1015.22
2017-04-18T07:14:11.997Z,1015.18
2017-04-18T07:14:52.562Z,1015.19
2017-04-18T07:15:33.153Z,1015.19
2017-04-18T07:16:13.831Z,1015.2
2017-04-18T07:16:54.756Z,1015.14
2017-04-18T07:17:36.241Z,1015.2
2017-04-18T07:18:17.902Z,1015.3
2017-04-18T07:18:59.053Z,1015.28
2017-04-18T07:19:40.337Z,1015.23
2017-04-18T07:20:21.301Z,1015.33
2017-04-18T07:21:01.875Z,1015.29
2017-04-18T07:21:42.444Z,1015.33
2017-04-18T07:22:23.042Z,1015.35
2017-04-18T07:23:03.664Z,1015.33
2017-04-18T07:23:44.264Z,1015.38
2017-04-18T07:24:24.834Z,1015.35
2017-04-18T07:25:05.510Z,1015.41
2017-04-18T07:25:46.088Z,1015.4
2017-04-18T07:26:26.713Z,1015.4
2017-04-18T07:27:07.307Z,1015.44
2017-04-18T07:27:47.910Z,1015.46
2017-04-18T07:28:28.502Z,1015.46
2017-04-18T07:29:09.112Z,1015.5
2017-04-18T07:29:49.712Z,1015.44
2017-04-18T07:30:30.346Z,1015.51
2017-04-18T07:31:10.940Z,1015.5
2017-04-18T07:31:51.617Z,1015.52
2017-04-18T07:32:32.199Z,1015.54
2017-04-18T07:33:12.784Z,1015.52
2017-04-18T07:33:53.372Z,1015.55
2017-04-18T07:34:34.014Z,1015.52
2017-04-18T07:35:14.764Z,1015.59
2017-04-18T07:35:55.273Z,1015.64
2017-04-18T07:36:35.858Z,1015.63
2017-04-18T07:37:16.507Z,1015.61
2017-04-18T07:37:57.149Z,1015.61
2017-04-18T07:38:37.821Z,1015.69
2017-04-18T07:39:18.392Z,1015.66
2017-04-18T07:39:59.019Z,1015.71
2017-04-18T07:40:39.598Z,1015.66
2017-04-18T07:41:20.200Z,1015.72
2017-04-18T07:42:00.907Z,1015.72
2017-04-18T07:42:41.504Z,1015.73
2017-04-18T07:43:22.136Z,1015.7
2017-04-18T07:44:02.812Z,1015.85
2017-04-18T07:44:43.394Z,1015.74
2017-04-18T07:45:23.971Z,1015.76
2017-04-18T07:46:04.673Z,1015.77
2017-04-18T07:46:45.284Z,1015.75
2017-04-18T07:47:25.878Z,1015.8
2017-04-18T07:48:06.451Z,1015.78
2017-04-18T07:48:47.131Z,1015.84
2017-04-18T07:49:27.733Z,1015.83
2017-04-18T07:50:08.365Z,1015.82
2017-04-18T07:50:48.919Z,1015.79
2017-04-18T07:51:29.497Z,1015.83
2017-04-18T07:52:10.101Z,1015.86
2017-04-18T07:52:50.696Z,1015.84
2017-04-18T07:53:31.328Z,1015.85
2017-04-18T07:54:11.943Z,1015.88
2017-04-18T07:54:52.560Z,1015.88
2017-04-18T07:55:33.164Z,1015.89
2017-04-18T07:56:13.739Z,1015.87
2017-04-18T07:56:54.355Z,1015.88
2017-04-18T07:57:34.923Z,1015.94
2017-04-18T07:58:15.542Z,1015.9
2017-04-18T07:58:56.142Z,1015.97
2017-04-18T07:59:36.745Z,1015.99
2017-04-18T08:00:17.410Z,1016
2017-04-18T08:00:58.008Z,1016
2017-04-18T08:01:38.588Z,1015.98
2017-04-18T08:02:19.207Z,1015.98
2017-04-18T08:02:59.813Z,1015.99
2017-04-18T08:03:40.447Z,1015.98
2017-04-18T08:04:21.150Z,1016
2017-04-18T08:05:01.758Z,1016.05
2017-04-18T08:05:42.366Z,1016.01
2017-04-18T08:06:22.958Z,1016.06
2017-04-18T08:07:03.567Z,1016.01
2017-04-18T08:07:44.144Z,1016.02
2017-04-18T08:08:24.721Z,1016.08
2017-04-18T08:09:05.333Z,1016.11
2017-04-18T08:09:45.937Z,1016.07
2017-04-18T08:10:26.630Z,1016.12
2017-04-18T08:11:07.227Z,1016.08
2017-04-18T08:11:47.846Z,1016.13
2017-04-18T08:12:28.423Z,1016.08
2017-04-18T08:13:09.256Z,1016.07
2017-04-18T08:13:49.801Z,1016.14
2017-04-18T08:14:30.496Z,1016.14
2017-04-18T08:15:11.102Z,1016.2